createdAt,value
2022-08-25T00:00:15.047Z,102420.25
2022-08-25T00:02:41.773Z,102428.56
2022-08-25T00:05:33.476Z,102420.78
2022-08-25T00:08:02.300Z,102420.00
2022-08-25T00:10:30.285Z,102419.06
2022-08-25T00:12:57.034Z,102418.00
2022-08-25T00:15:24.009Z,102416.91
2022-08-25T00:17:51.672Z,102425.00
2022-08-25T00:20:22.510Z,102418.81
2022-08-25T00:22:49.565Z,102424.16
2022-08-25T00:25:17.239Z,102424.25
2022-08-25T00:27:46.676Z,102425.22
2022-08-25T00:30:16.040Z,102424.50
2022-08-25T00:32:43.041Z,102422.94
2022-08-25T00:35:18.227Z,102428.53
2022-08-25T00:37:45.357Z,102427.75
2022-08-25T00:40:12.333Z,102426.09
2022-08-25T00:42:39.224Z,102427.91
2022-08-25T00:45:08.869Z,102422.56
2022-08-25T00:47:36.635Z,102424.34
2022-08-25T00:50:06.301Z,102425.31
2022-08-25T00:52:40.994Z,102433.41
2022-08-25T00:55:25.823Z,102430.66
2022-08-25T00:58:00.824Z,102429.00
2022-08-25T01:00:32.419Z,102429.09
2022-08-25T01:02:59.818Z,102431.75
2022-08-25T01:05:28.510Z,102426.63
2022-08-25T01:07:58.362Z,102426.00
2022-08-25T01:10:27.271Z,102422.56
2022-08-25T01:13:00.036Z,102425.38
2022-08-25T01:15:27.943Z,102418.34
2022-08-25T01:17:56.559Z,102429.91
2022-08-25T01:20:29.503Z,102427.22
2022-08-25T01:22:57.485Z,102436.13
2022-08-25T01:25:53.147Z,102439.78
2022-08-25T01:28:21.066Z,102434.81
2022-08-25T01:30:49.451Z,102430.59
2022-08-25T01:33:17.430Z,102429.75
2022-08-25T01:35:44.938Z,102429.69
2022-08-25T01:38:11.946Z,102426.28
2022-08-25T01:40:40.130Z,102421.91
2022-08-25T01:43:14.775Z,102423.63
2022-08-25T01:45:45.235Z,102428.03
2022-08-25T01:48:13.047Z,102430.75
2022-08-25T01:50:41.074Z,102431.63
2022-08-25T01:53:19.069Z,102430.72
2022-08-25T01:55:51.832Z,102436.94
2022-08-25T01:58:46.479Z,102431.50
2022-08-25T02:01:20.362Z,102434.16
2022-08-25T02:03:49.707Z,102437.69
2022-08-25T02:06:22.157Z,102437.75
2022-08-25T02:08:59.026Z,102431.63
2022-08-25T02:11:25.889Z,102436.25
2022-08-25T02:13:52.785Z,102439.03
2022-08-25T02:16:33.375Z,102428.44
2022-08-25T02:19:01.105Z,102425.78
2022-08-25T02:21:28.358Z,102433.78
2022-08-25T02:23:55.374Z,102427.56
2022-08-25T02:26:22.581Z,102425.09
2022-08-25T02:28:51.407Z,102419.97
2022-08-25T02:31:20.421Z,102420.91
2022-08-25T02:33:47.157Z,102423.72
2022-08-25T02:36:13.774Z,102430.03
2022-08-25T02:38:40.554Z,102427.38
2022-08-25T02:41:20.206Z,102423.78
2022-08-25T02:43:48.641Z,102432.72
2022-08-25T02:46:17.311Z,102428.25
2022-08-25T02:48:44.565Z,102432.59
2022-08-25T02:51:12.394Z,102431.72
2022-08-25T02:53:40.567Z,102434.38
2022-08-25T02:56:09.812Z,102431.72
2022-08-25T02:58:39.283Z,102433.56
2022-08-25T03:01:07.570Z,102425.59
2022-08-25T03:03:39.195Z,102431.78
2022-08-25T03:06:10.190Z,102431.72
2022-08-25T03:08:38.265Z,102434.38
2022-08-25T03:11:06.076Z,102435.38
2022-08-25T03:13:32.778Z,102432.03
2022-08-25T03:16:00.500Z,102432.28
2022-08-25T03:18:27.726Z,102430.56
2022-08-25T03:20:54.994Z,102432.44
2022-08-25T03:23:21.787Z,102433.44
2022-08-25T03:26:07.271Z,102428.06
2022-08-25T03:28:34.026Z,102431.50
2022-08-25T03:31:01.849Z,102432.38
2022-08-25T03:33:30.271Z,102431.69
2022-08-25T03:35:57.897Z,102424.72
2022-08-25T03:38:25.747Z,102431.75
2022-08-25T03:40:52.834Z,102432.63
2022-08-25T03:43:20.294Z,102423.81
2022-08-25T03:45:47.956Z,102430.00
2022-08-25T03:48:16.659Z,102434.53
2022-08-25T03:50:51.829Z,102429.28
2022-08-25T03:53:19.858Z,102418.72
2022-08-25T03:55:47.241Z,102425.78
2022-08-25T03:58:14.974Z,102429.22
2022-08-25T04:00:42.225Z,102430.88
2022-08-25T04:03:09.082Z,102431.69
2022-08-25T04:05:35.768Z,102433.47
2022-08-25T04:08:03.088Z,102432.56
2022-08-25T04:10:31.954Z,102428.28
2022-08-25T04:12:58.731Z,102429.31
2022-08-25T04:15:30.011Z,102436.44
2022-08-25T04:17:59.106Z,102434.59
2022-08-25T04:20:26.400Z,102426.47
2022-08-25T04:22:53.322Z,102429.03
2022-08-25T04:25:20.317Z,102436.00
2022-08-25T04:27:47.149Z,102432.31
2022-08-25T04:30:14.715Z,102425.97
2022-08-25T04:32:41.538Z,102425.91
2022-08-25T04:35:08.796Z,102425.03
2022-08-25T04:37:35.714Z,102432.97
2022-08-25T04:40:02.782Z,102433.84
2022-08-25T04:42:29.513Z,102432.91
2022-08-25T04:44:56.157Z,102433.72
2022-08-25T04:47:22.874Z,102429.25
2022-08-25T04:49:49.611Z,102436.31
2022-08-25T04:52:16.451Z,102429.13
2022-08-25T04:54:44.074Z,102429.03
2022-08-25T04:57:11.410Z,102431.66
2022-08-25T04:59:38.834Z,102432.44
2022-08-25T05:02:06.713Z,102432.38
2022-08-25T05:04:35.669Z,102435.84
2022-08-25T05:07:03.937Z,102425.97
2022-08-25T05:09:32.363Z,102432.09
2022-08-25T05:12:01.145Z,102432.03
2022-08-25T05:14:28.846Z,102433.69
2022-08-25T05:16:57.187Z,102430.97
2022-08-25T05:19:26.611Z,102432.72
2022-08-25T05:21:53.984Z,102430.88
2022-08-25T05:24:22.149Z,102432.56
2022-08-25T05:26:48.997Z,102434.22
2022-08-25T05:29:15.824Z,102431.41
2022-08-25T05:31:48.304Z,102433.78
2022-08-25T05:34:18.426Z,102432.75
2022-08-25T05:36:48.828Z,102427.22
2022-08-25T05:39:15.902Z,102427.16
2022-08-25T05:41:44.586Z,102433.22
2022-08-25T05:44:12.733Z,102435.81
2022-08-25T05:46:39.593Z,102440.00
2022-08-25T05:49:06.697Z,102445.22
2022-08-25T05:51:34.161Z,102441.50
2022-08-25T05:54:00.822Z,102438.69
2022-08-25T05:56:27.469Z,102435.81
2022-08-25T05:58:54.177Z,102436.53
2022-08-25T06:01:43.477Z,102443.34
2022-08-25T06:04:12.464Z,102443.13
2022-08-25T06:06:40.159Z,102434.84
2022-08-25T06:09:08.867Z,102442.63
2022-08-25T06:11:40.213Z,102442.31
2022-08-25T06:14:09.544Z,102442.03
2022-08-25T06:16:36.946Z,102440.88
2022-08-25T06:19:03.942Z,102451.28
2022-08-25T06:21:30.698Z,102442.06
2022-08-25T06:23:57.373Z,102452.31
2022-08-25T06:26:24.969Z,102444.75
2022-08-25T06:28:52.767Z,102448.84
2022-08-25T06:31:22.465Z,102450.28
2022-08-25T06:33:50.281Z,102450.88
2022-08-25T06:36:17.389Z,102451.47
2022-08-25T06:38:44.082Z,102449.44
2022-08-25T06:41:10.970Z,102455.28
2022-08-25T06:43:41.637Z,102455.00
2022-08-25T06:46:16.208Z,102447.50
2022-08-25T06:48:43.195Z,102448.94
2022-08-25T06:51:14.092Z,102446.84
2022-08-25T06:53:42.926Z,102448.31
2022-08-25T06:56:10.055Z,102448.84
2022-08-25T06:58:37.142Z,102450.34
2022-08-25T07:01:19.689Z,102454.56
2022-08-25T07:03:47.606Z,102454.31
2022-08-25T07:06:18.288Z,102453.97
2022-08-25T07:08:46.750Z,102457.22
2022-08-25T07:11:16.081Z,102455.09
2022-08-25T07:13:44.736Z,102454.81
2022-08-25T07:16:11.630Z,102455.47
2022-08-25T07:18:50.912Z,102455.06
2022-08-25T07:21:20.611Z,102463.69
2022-08-25T07:23:49.972Z,102450.81
2022-08-25T07:26:41.374Z,102455.88
2022-08-25T07:29:09.628Z,102470.78
2022-08-25T07:31:36.403Z,102472.34
2022-08-25T07:34:26.358Z,102475.69
2022-08-25T07:36:54.663Z,102471.75
2022-08-25T07:39:22.686Z,102470.50
2022-08-25T07:41:52.228Z,102481.78
2022-08-25T07:44:21.424Z,102473.44
2022-08-25T07:46:51.360Z,102462.44
2022-08-25T07:49:23.326Z,102463.94
2022-08-25T07:52:05.065Z,102461.78
2022-08-25T07:54:37.671Z,102463.09
2022-08-25T07:57:07.364Z,102460.78
2022-08-25T07:59:39.515Z,102462.13
2022-08-25T08:02:18.544Z,102454.44
2022-08-25T08:04:49.856Z,102455.66
2022-08-25T08:07:23.180Z,102456.88
2022-08-25T08:10:00.393Z,102461.63
2022-08-25T08:12:38.126Z,102464.47
2022-08-25T08:15:10.409Z,102470.72
2022-08-25T08:17:37.814Z,102460.22
2022-08-25T08:20:09.084Z,102469.53
2022-08-25T08:22:37.795Z,102458.88
2022-08-25T08:25:06.165Z,102465.97
2022-08-25T08:27:37.570Z,102468.22
2022-08-25T08:30:05.883Z,102468.53
2022-08-25T08:33:05.862Z,102481.28
2022-08-25T08:35:19.299Z,102474.13
2022-08-25T08:37:46.346Z,102464.53
2022-08-25T08:40:15.853Z,102462.06
2022-08-25T08:42:53.948Z,102458.34
2022-08-25T08:45:46.101Z,102454.19
2022-08-25T08:48:43.567Z,102460.75
2022-08-25T08:51:24.731Z,102461.84
2022-08-25T08:53:59.283Z,102452.41
2022-08-25T08:56:30.743Z,102459.38
2022-08-25T08:59:16.092Z,102456.53
2022-08-25T09:01:59.361Z,102450.56
2022-08-25T09:04:46.612Z,102457.38
2022-08-25T09:07:19.071Z,102456.94
2022-08-25T09:09:48.418Z,102452.94
2022-08-25T09:12:21.631Z,102449.66
2022-08-25T09:15:03.186Z,102452.47
2022-08-25T09:18:12.144Z,102447.63
2022-08-25T09:21:07.861Z,102449.91
2022-08-25T09:23:42.301Z,102451.28
2022-08-25T09:26:18.267Z,102438.13
2022-08-25T09:28:51.231Z,102438.38
2022-08-25T09:31:29.576Z,102443.63
2022-08-25T09:34:00.363Z,102436.16
2022-08-25T09:36:27.126Z,102433.28
2022-08-25T09:38:54.711Z,102432.16
2022-08-25T09:41:47.185Z,102422.47
2022-08-25T09:44:21.482Z,102424.31
2022-08-25T09:46:55.687Z,102417.66
2022-08-25T09:49:30.875Z,102434.66
2022-08-25T09:52:37.436Z,102421.72
2022-08-25T09:55:15.919Z,102418.28
2022-08-25T09:57:49.120Z,102408.84
2022-08-25T10:00:34.237Z,102407.31
2022-08-25T10:03:00.976Z,102414.16
2022-08-25T10:05:35.642Z,102410.13
2022-08-25T10:08:16.251Z,102411.72
2022-08-25T10:10:53.097Z,102402.41
2022-08-25T10:13:23.722Z,102401.53
2022-08-25T10:16:19.978Z,102395.22
2022-08-25T10:19:21.531Z,102394.84
2022-08-25T10:22:05.666Z,102394.00
2022-08-25T10:24:33.691Z,102388.00
2022-08-25T10:27:22.591Z,102391.53
2022-08-25T10:29:55.352Z,102384.75
2022-08-25T10:32:53.735Z,102380.50
2022-08-25T10:35:43.303Z,102377.34
2022-08-25T10:38:31.182Z,102377.13
2022-08-25T10:41:16.904Z,102369.97
2022-08-25T10:44:31.540Z,102375.81
2022-08-25T10:47:10.402Z,102368.97
2022-08-25T10:49:47.698Z,102360.72
2022-08-25T10:52:29.751Z,102360.31
2022-08-25T10:55:17.724Z,102355.47
2022-08-25T10:58:14.950Z,102350.03
2022-08-25T11:01:04.375Z,102353.09
2022-08-25T11:03:42.829Z,102355.56
2022-08-25T11:06:18.809Z,102347.19
2022-08-25T11:08:56.142Z,102351.47
2022-08-25T11:11:34.939Z,102351.59
2022-08-25T11:14:16.078Z,102356.25
2022-08-25T11:16:53.847Z,102359.13
2022-08-25T11:19:33.805Z,102353.75
2022-08-25T11:22:10.314Z,102350.59
2022-08-25T11:24:47.082Z,102350.22
2022-08-25T11:27:21.733Z,102353.59
2022-08-25T11:30:08.530Z,102348.91
2022-08-25T11:32:37.900Z,102350.63
2022-08-25T11:35:08.873Z,102345.19
2022-08-25T11:38:19.402Z,102340.59
2022-08-25T11:40:53.244Z,102348.38
2022-08-25T11:43:43.917Z,102341.00
2022-08-25T11:46:28.001Z,102337.19
2022-08-25T11:49:08.229Z,102323.69
2022-08-25T11:51:50.696Z,102325.44
2022-08-25T11:54:36.853Z,102318.31
2022-08-25T11:57:08.629Z,102310.09
2022-08-25T11:59:50.819Z,102306.75
2022-08-25T12:02:47.902Z,102307.06
2022-08-25T12:05:17.359Z,102301.41
2022-08-25T12:07:47.258Z,102295.34
2022-08-25T12:10:25.307Z,102294.72
2022-08-25T12:13:02.340Z,102297.09
2022-08-25T12:15:31.588Z,102293.91
2022-08-25T12:18:32.840Z,102285.13
2022-08-25T12:21:00.939Z,102289.41
2022-08-25T12:24:03.219Z,102268.66
2022-08-25T12:26:50.798Z,102267.41
2022-08-25T12:29:32.603Z,102269.53
2022-08-25T12:32:18.047Z,102270.16
2022-08-25T12:35:03.552Z,102276.19
2022-08-25T12:37:30.550Z,102271.91
2022-08-25T12:40:03.925Z,102264.47
2022-08-25T12:42:36.059Z,102255.94
2022-08-25T12:45:34.576Z,102247.75
2022-08-25T12:48:29.069Z,102246.75
2022-08-25T12:51:05.149Z,102242.38
2022-08-25T12:54:01.405Z,102242.28
2022-08-25T12:56:37.539Z,102233.34
2022-08-25T12:59:18.346Z,102234.34
2022-08-25T13:02:22.672Z,102234.56
2022-08-25T13:05:22.867Z,102235.28
2022-08-25T13:08:18.070Z,102234.28
2022-08-25T13:10:50.570Z,102236.94
2022-08-25T13:13:39.767Z,102232.09
2022-08-25T13:16:15.581Z,102231.22
2022-08-25T13:18:42.372Z,102235.22
2022-08-25T13:21:12.006Z,102236.59
2022-08-25T13:23:42.722Z,102236.25
2022-08-25T13:26:15.182Z,102228.13
2022-08-25T13:28:42.959Z,102228.00
2022-08-25T13:31:22.471Z,102224.19
2022-08-25T13:34:09.485Z,102218.63
2022-08-25T13:37:07.052Z,102222.75
2022-08-25T13:42:28.703Z,102227.72
2022-08-25T13:44:56.007Z,102219.81
2022-08-25T13:47:43.347Z,102219.19
2022-08-25T13:50:22.566Z,102222.78
2022-08-25T13:52:57.055Z,102224.88
2022-08-25T13:55:28.758Z,102219.94
2022-08-25T13:57:58.289Z,102216.56
2022-08-25T14:00:48.229Z,102212.28
2022-08-25T14:03:36.104Z,102208.03
2022-08-25T14:06:07.893Z,102208.56
2022-08-25T14:08:38.970Z,102206.06
2022-08-25T14:11:30.691Z,102199.03
2022-08-25T14:14:15.411Z,102215.00
2022-08-25T14:17:16.417Z,102204.13
2022-08-25T14:19:48.962Z,102206.84
2022-08-25T14:22:15.971Z,102209.41
2022-08-25T14:24:44.047Z,102199.41
2022-08-25T14:27:11.886Z,102196.34
2022-08-25T14:29:41.155Z,102193.84
2022-08-25T14:32:10.064Z,102188.63
2022-08-25T14:34:41.801Z,102179.97
2022-08-25T14:37:19.001Z,102178.16
2022-08-25T14:39:46.829Z,102174.66
2022-08-25T14:42:14.579Z,102177.19
2022-08-25T14:44:41.263Z,102171.97
2022-08-25T14:47:10.858Z,102167.84
2022-08-25T14:49:42.698Z,102165.41
2022-08-25T14:52:20.027Z,102168.41
2022-08-25T14:54:49.503Z,102161.59
2022-08-25T14:57:16.266Z,102166.19
2022-08-25T14:59:43.516Z,102150.56
2022-08-25T15:02:14.283Z,102145.31
2022-08-25T15:04:49.188Z,102146.06
2022-08-25T15:07:37.754Z,102149.56
2022-08-25T15:10:13.549Z,102144.56
2022-08-25T15:12:47.872Z,102147.03
2022-08-25T15:15:14.926Z,102147.03
2022-08-25T15:17:44.577Z,102142.84
2022-08-25T15:20:12.008Z,102145.06
2022-08-25T15:22:38.796Z,102140.13
2022-08-25T15:25:08.912Z,102136.69
2022-08-25T15:27:36.862Z,102130.50
2022-08-25T15:30:07.719Z,102131.75
2022-08-25T15:32:37.437Z,102132.22
2022-08-25T15:35:05.414Z,102136.19
2022-08-25T15:37:32.614Z,102134.72
2022-08-25T15:39:59.835Z,102127.81
2022-08-25T15:42:26.955Z,102125.34
2022-08-25T15:44:56.681Z,102125.59
2022-08-25T15:47:24.307Z,102113.09
2022-08-25T15:50:02.043Z,102110.63
2022-08-25T15:52:44.580Z,102117.44
2022-08-25T15:55:14.166Z,102114.69
2022-08-25T15:57:41.146Z,102113.31
2022-08-25T16:00:12.006Z,102125.06
2022-08-25T16:02:40.943Z,102122.50
2022-08-25T16:05:16.391Z,102123.09
2022-08-25T16:07:46.170Z,102125.06
2022-08-25T16:10:19.873Z,102125.34
2022-08-25T16:12:49.438Z,102123.63
2022-08-25T16:15:18.997Z,102106.84
2022-08-25T16:17:51.106Z,102117.22
2022-08-25T16:20:19.603Z,102108.34
2022-08-25T16:22:47.592Z,102105.25
2022-08-25T16:25:15.499Z,102095.97
2022-08-25T16:27:44.167Z,102104.22
2022-08-25T16:30:17.484Z,102100.78
2022-08-25T16:32:47.532Z,102098.88
2022-08-25T16:35:19.627Z,102102.59
2022-08-25T16:37:46.727Z,102108.00
2022-08-25T16:40:16.247Z,102110.66
2022-08-25T16:42:45.462Z,102096.28
2022-08-25T16:45:12.286Z,102101.06
2022-08-25T16:47:39.704Z,102106.78
2022-08-25T16:50:12.044Z,102108.72
2022-08-25T16:53:02.699Z,102104.41
2022-08-25T16:55:38.699Z,102106.28
2022-08-25T16:58:06.620Z,102108.56
2022-08-25T17:00:37.329Z,102110.34
2022-08-25T17:03:05.150Z,102112.22
2022-08-25T17:05:33.530Z,102104.09
2022-08-25T17:08:19.505Z,102108.34
2022-08-25T17:10:47.039Z,102112.88
2022-08-25T17:13:13.985Z,102114.50
2022-08-25T17:15:44.543Z,102120.34
2022-08-25T17:18:12.844Z,102119.78
2022-08-25T17:20:48.037Z,102119.47
2022-08-25T17:23:17.845Z,102130.72
2022-08-25T17:25:50.558Z,102118.91
2022-08-25T17:28:17.266Z,102123.97
2022-08-25T17:30:44.987Z,102123.53
2022-08-25T17:33:14.171Z,102118.53
2022-08-25T17:35:43.399Z,102116.13
2022-08-25T17:38:11.936Z,102115.66
2022-08-25T17:40:39.758Z,102117.88
2022-08-25T17:43:08.953Z,102131.06
2022-08-25T17:45:37.120Z,102125.22
2022-08-25T17:48:06.965Z,102122.91
2022-08-25T17:50:36.030Z,102124.19
2022-08-25T17:53:03.853Z,102121.22
2022-08-25T17:55:31.426Z,102136.00
2022-08-25T17:57:58.934Z,102141.78
2022-08-25T18:00:25.791Z,102134.19
2022-08-25T18:02:52.798Z,102142.69
2022-08-25T18:05:27.806Z,102145.41
2022-08-25T18:07:54.802Z,102143.81
2022-08-25T18:10:21.569Z,102146.16
2022-08-25T18:12:48.484Z,102141.34
2022-08-25T18:15:15.487Z,102147.41
2022-08-25T18:17:42.961Z,102138.16
2022-08-25T18:20:13.892Z,102137.84
2022-08-25T18:22:44.857Z,102133.78
2022-08-25T18:25:13.509Z,102135.31
2022-08-25T18:27:43.558Z,102129.72
2022-08-25T18:30:10.699Z,102141.03
2022-08-25T18:32:37.882Z,102144.28
2022-08-25T18:35:06.143Z,102150.13
2022-08-25T18:37:54.411Z,102140.97
2022-08-25T18:40:24.812Z,102147.16
2022-08-25T18:43:00.366Z,102147.19
2022-08-25T18:45:33.003Z,102137.69
2022-08-25T18:48:00.906Z,102147.78
2022-08-25T18:50:34.168Z,102139.88
2022-08-25T18:53:03.861Z,102144.41
2022-08-25T18:55:34.268Z,102139.97
2022-08-25T18:58:04.352Z,102137.47
2022-08-25T19:00:32.509Z,102139.78
2022-08-25T19:03:00.917Z,102142.91
2022-08-25T19:05:38.192Z,102137.59
2022-08-25T19:08:10.862Z,102141.16
2022-08-25T19:10:39.721Z,102131.50
2022-08-25T19:13:08.143Z,102138.09
2022-08-25T19:15:36.312Z,102134.69
2022-08-25T19:18:08.019Z,102140.47
2022-08-25T19:20:36.928Z,102131.69
2022-08-25T19:23:03.748Z,102132.00
2022-08-25T19:25:34.828Z,102137.56
2022-08-25T19:28:06.812Z,102142.25
2022-08-25T19:30:34.315Z,102148.75
2022-08-25T19:33:04.653Z,102148.13
2022-08-25T19:35:44.533Z,102144.81
2022-08-25T19:38:33.379Z,102138.97
2022-08-25T19:41:02.641Z,102144.66
2022-08-25T19:43:38.800Z,102146.81
2022-08-25T19:46:07.432Z,102141.59
2022-08-25T19:48:48.525Z,102144.50
2022-08-25T19:51:21.701Z,102139.22
2022-08-25T19:53:53.597Z,102141.25
2022-08-25T19:56:21.708Z,102141.53
2022-08-25T19:58:48.538Z,102150.72
2022-08-25T20:01:18.207Z,102144.47
2022-08-25T20:03:45.497Z,102137.47
2022-08-25T20:06:12.277Z,102143.81
2022-08-25T20:08:46.547Z,102147.72
2022-08-25T20:11:29.533Z,102136.75
2022-08-25T20:13:59.313Z,102134.47
2022-08-25T20:16:29.913Z,102132.59
2022-08-25T20:18:56.690Z,102135.34
2022-08-25T20:21:25.310Z,102129.19
2022-08-25T20:24:11.776Z,102127.44
2022-08-25T20:26:38.726Z,102123.97
2022-08-25T20:29:10.988Z,102122.53
2022-08-25T20:31:38.969Z,102130.59
2022-08-25T20:34:06.272Z,102124.56
2022-08-25T20:36:33.329Z,102121.97
2022-08-25T20:38:59.958Z,102118.31
2022-08-25T20:41:26.925Z,102123.00
2022-08-25T20:43:53.707Z,102125.78
2022-08-25T20:46:22.837Z,102126.78
2022-08-25T20:48:49.590Z,102127.00
2022-08-25T20:51:18.750Z,102132.72
2022-08-25T20:53:45.559Z,102133.97
2022-08-25T20:56:16.273Z,102132.97
2022-08-25T20:58:44.697Z,102132.78
2022-08-25T21:01:17.511Z,102133.38
2022-08-25T21:03:50.378Z,102126.53
2022-08-25T21:06:17.272Z,102133.94
2022-08-25T21:08:47.363Z,102135.09
2022-08-25T21:11:21.337Z,102137.13
2022-08-25T21:13:50.963Z,102137.41
2022-08-25T21:16:18.024Z,102135.66
2022-08-25T21:18:48.215Z,102133.97
2022-08-25T21:21:16.674Z,102130.66
2022-08-25T21:23:48.240Z,102126.44
2022-08-25T21:26:29.387Z,102127.75
2022-08-25T21:29:00.583Z,102130.56
2022-08-25T21:31:28.342Z,102124.34
2022-08-25T21:33:58.394Z,102128.88
2022-08-25T21:36:26.603Z,102129.97
2022-08-25T21:38:53.772Z,102127.56
2022-08-25T21:41:26.393Z,102122.44
2022-08-25T21:43:54.076Z,102118.38
2022-08-25T21:46:23.500Z,102119.63
2022-08-25T21:48:53.819Z,102125.34
2022-08-25T21:51:34.640Z,102124.81
2022-08-25T21:54:10.512Z,102123.13
2022-08-25T21:56:55.570Z,102122.25
2022-08-25T21:59:25.328Z,102123.22
2022-08-25T22:01:56.770Z,102117.84
2022-08-25T22:04:23.682Z,102122.38
2022-08-25T22:06:51.143Z,102125.31
2022-08-25T22:09:18.026Z,102132.69
2022-08-25T22:11:46.470Z,102119.59
2022-08-25T22:14:20.395Z,102107.25
2022-08-25T22:16:47.245Z,102120.75
2022-08-25T22:19:14.622Z,102114.63
2022-08-25T22:21:45.822Z,102112.03
2022-08-25T22:24:12.946Z,102116.66
2022-08-25T22:26:42.989Z,102109.75
2022-08-25T22:29:23.235Z,102116.47
2022-08-25T22:31:58.627Z,102125.75
2022-08-25T22:34:31.916Z,102124.25
2022-08-25T22:37:00.053Z,102117.38
2022-08-25T22:39:30.269Z,102105.97
2022-08-25T22:42:04.746Z,102110.66
2022-08-25T22:44:31.952Z,102113.56
2022-08-25T22:46:58.620Z,102114.63
2022-08-25T22:49:30.382Z,102109.50
2022-08-25T22:51:59.941Z,102106.94
2022-08-25T22:54:26.709Z,102106.94
2022-08-25T22:56:53.884Z,102101.69
2022-08-25T22:59:22.177Z,102098.09
2022-08-25T23:01:49.704Z,102096.41
2022-08-25T23:04:16.517Z,102091.13
2022-08-25T23:06:47.181Z,102092.03
2022-08-25T23:09:14.436Z,102100.19
2022-08-25T23:11:42.569Z,102093.31
2022-08-25T23:14:11.207Z,102102.47
2022-08-25T23:16:42.178Z,102097.38
2022-08-25T23:19:14.280Z,102091.25
2022-08-25T23:22:04.466Z,102100.13
2022-08-25T23:24:31.822Z,102095.59
2022-08-25T23:27:06.685Z,102092.97
2022-08-25T23:29:37.530Z,102086.91
2022-08-25T23:32:07.478Z,102077.28
2022-08-25T23:34:36.521Z,102090.94
2022-08-25T23:37:05.870Z,102083.03
2022-08-25T23:39:32.631Z,102089.44
2022-08-25T23:41:59.342Z,102085.84
2022-08-25T23:44:26.678Z,102082.31
2022-08-25T23:46:53.494Z,102087.75
2022-08-25T23:49:22.388Z,102082.53
2022-08-25T23:51:53.286Z,102086.34
2022-08-25T23:54:30.964Z,102084.78
2022-08-25T23:56:58.588Z,102086.59
2022-08-25T23:59:25.403Z,102080.25
